KOEO

L O Simenstad Municipal Airport

Osceola, Wisconsin, USA
METAR KOEO 260415Z AUTO 18005KT 10SM CLR 20/16 A2973 RMK AO2 T01950161
Observed Flight Rules
May-26 @ 04:15 UTC (6 minutes ago) Visual Flight Rules
Wind Visibility Clouds
180° at 5 knots 10 miles
  • Clear skies
Temperatures Readings
Current 20°C / 68°F
Dewpoint 16°C / 61°F
Humidity 78%
Altimeter 29.73" Hg
Pressure 1007 hPa
Elevation 275
METAR KOEO 260415Z AUTO 18005KT 10SM CLR 20/16 A2973 RMK AO2 T01950161
Observed Flight Rules
May-26 @ 04:15 UTC
(6 minutes ago)
VFR
Wind Visibility
180° at 5 knots 10 miles
Clouds
  • Clear skies
Temperature Dewpoint
20°C / 68°F 16°C / 61°F
Humidity Altimeter Pressure
78% 29.73" Hg 1007 hPa